KKK60C LTBA-LTFE
Flight info
| Callsign | KKK60C |
|---|---|
| Flight time | 0h 47m |
| Altitude | 33000 |
| Route | IVGUS1A/05 IVGUS UM19 EFQAT/N0446F350 UM19 OZNEF |
| Aircraft | A320/M-SDE3FGHIRWY/LB1 |
Departure
| Time | 2026-04-22 22:28 |
|---|---|
| Airport | İstanbul Atatürk Airport (LTBA) |
Arrival
| Time | 2026-04-22 23:16 |
|---|---|
| Airport | Milas Bodrum International Airport (LTFE) |
| Time | Latitude | Longitude | Altitude | Speed | Heading |
|---|---|---|---|---|---|
| 2026-04-22 21:59 | 40.97769 | 28.81601 | 120 ft | 0 kts | 109° |
| 2026-04-22 22:16 | 40.97776 | 28.81572 | 117 ft | 4 kts | 109° |
| 2026-04-22 22:17 | 40.97785 | 28.81538 | 117 ft | 4 kts | 109° |
| 2026-04-22 22:17 | 40.97793 | 28.81506 | 118 ft | 2 kts | 109° |
| 2026-04-22 22:17 | 40.97801 | 28.81478 | 119 ft | 4 kts | 114° |
| 2026-04-22 22:17 | 40.97813 | 28.81447 | 117 ft | 4 kts | 124° |
| 2026-04-22 22:18 | 40.97830 | 28.81421 | 118 ft | 4 kts | 150° |
| 2026-04-22 22:18 | 40.97849 | 28.81413 | 122 ft | 3 kts | 181° |
| 2026-04-22 22:18 | 40.97876 | 28.81413 | 122 ft | 4 kts | 178° |
| 2026-04-22 22:18 | 40.97886 | 28.81412 | 123 ft | 0 kts | 180° |
| 2026-04-22 22:21 | 40.97885 | 28.81412 | 123 ft | 1 kts | 180° |
| 2026-04-22 22:21 | 40.97862 | 28.81412 | 119 ft | 6 kts | 180° |
| 2026-04-22 22:21 | 40.97807 | 28.81410 | 118 ft | 10 kts | 187° |
| 2026-04-22 22:21 | 40.97722 | 28.81391 | 120 ft | 15 kts | 189° |
| 2026-04-22 22:22 | 40.97605 | 28.81393 | 115 ft | 18 kts | 178° |
| 2026-04-22 22:22 | 40.97499 | 28.81435 | 116 ft | 15 kts | 151° |
| 2026-04-22 22:22 | 40.97479 | 28.81439 | 118 ft | 2 kts | 184° |
| 2026-04-22 22:22 | 40.97455 | 28.81433 | 114 ft | 5 kts | 180° |
| 2026-04-22 22:23 | 40.97446 | 28.81433 | 116 ft | 0 kts | 180° |
| 2026-04-22 22:24 | 40.97438 | 28.81433 | 114 ft | 3 kts | 180° |
| 2026-04-22 22:24 | 40.97407 | 28.81435 | 115 ft | 7 kts | 178° |
| 2026-04-22 22:24 | 40.97330 | 28.81436 | 113 ft | 13 kts | 180° |
| 2026-04-22 22:25 | 40.97226 | 28.81439 | 113 ft | 17 kts | 181° |
| 2026-04-22 22:25 | 40.97089 | 28.81443 | 111 ft | 19 kts | 178° |
| 2026-04-22 22:25 | 40.96950 | 28.81410 | 106 ft | 22 kts | 231° |
| 2026-04-22 22:25 | 40.96867 | 28.81233 | 108 ft | 25 kts | 239° |
| 2026-04-22 22:26 | 40.96777 | 28.81063 | 105 ft | 13 kts | 193° |
| 2026-04-22 22:26 | 40.96678 | 28.81109 | 102 ft | 18 kts | 145° |
| 2026-04-22 22:26 | 40.96666 | 28.81219 | 105 ft | 2 kts | 60° |
| 2026-04-22 22:27 | 40.96667 | 28.81222 | 105 ft | 4 kts | 60° |
| 2026-04-22 22:27 | 40.96813 | 28.81539 | 109 ft | 77 kts | 58° |
| 2026-04-22 22:28 | 40.97202 | 28.82376 | 107 ft | 133 kts | 59° |
| 2026-04-22 22:28 | 40.97707 | 28.83475 | 618 ft | 138 kts | 59° |
| 2026-04-22 22:28 | 40.98211 | 28.84575 | 1289 ft | 141 kts | 59° |
| 2026-04-22 22:28 | 40.98723 | 28.85684 | 1934 ft | 144 kts | 59° |
| 2026-04-22 22:29 | 40.99118 | 28.86992 | 2260 ft | 167 kts | 85° |
| 2026-04-22 22:29 | 40.98722 | 28.88546 | 2557 ft | 199 kts | 128° |
| 2026-04-22 22:29 | 40.97651 | 28.89874 | 2972 ft | 221 kts | 136° |
| 2026-04-22 22:29 | 40.96489 | 28.91235 | 3005 ft | 223 kts | 136° |
| 2026-04-22 22:30 | 40.95300 | 28.92553 | 3004 ft | 224 kts | 146° |
| 2026-04-22 22:30 | 40.93795 | 28.93013 | 3007 ft | 231 kts | 187° |
| 2026-04-22 22:30 | 40.92291 | 28.92023 | 3286 ft | 259 kts | 218° |
| 2026-04-22 22:30 | 40.90902 | 28.90408 | 3869 ft | 272 kts | 223° |
| 2026-04-22 22:31 | 40.89546 | 28.88659 | 3990 ft | 273 kts | 225° |
| 2026-04-22 22:31 | 40.88230 | 28.86904 | 4006 ft | 272 kts | 225° |
| 2026-04-22 22:31 | 40.86892 | 28.85128 | 4007 ft | 272 kts | 224° |
| 2026-04-22 22:31 | 40.85550 | 28.83371 | 4006 ft | 272 kts | 224° |
| 2026-04-22 22:32 | 40.84175 | 28.81654 | 4065 ft | 274 kts | 217° |
| 2026-04-22 22:32 | 40.82540 | 28.80294 | 4904 ft | 279 kts | 211° |
| 2026-04-22 22:32 | 40.80880 | 28.78940 | 5965 ft | 281 kts | 210° |
| 2026-04-22 22:32 | 40.79199 | 28.77552 | 6872 ft | 288 kts | 211° |
| 2026-04-22 22:33 | 40.77480 | 28.76129 | 7714 ft | 293 kts | 212° |
| 2026-04-22 22:33 | 40.75749 | 28.74696 | 8722 ft | 294 kts | 213° |
| 2026-04-22 22:33 | 40.73994 | 28.73246 | 9617 ft | 298 kts | 213° |
| 2026-04-22 22:33 | 40.72222 | 28.71785 | 10375 ft | 309 kts | 214° |
| 2026-04-22 22:34 | 40.70331 | 28.70225 | 10629 ft | 332 kts | 216° |
| 2026-04-22 22:34 | 40.68339 | 28.68588 | 11232 ft | 340 kts | 214° |
| 2026-04-22 22:34 | 40.66332 | 28.66946 | 12173 ft | 338 kts | 214° |
| 2026-04-22 22:34 | 40.64351 | 28.65329 | 13069 ft | 338 kts | 215° |
| 2026-04-22 22:35 | 40.62374 | 28.63719 | 13908 ft | 339 kts | 215° |
| 2026-04-22 22:35 | 40.60366 | 28.62090 | 14684 ft | 339 kts | 215° |
| 2026-04-22 22:35 | 40.58331 | 28.60441 | 15454 ft | 339 kts | 216° |
| 2026-04-22 22:35 | 40.56320 | 28.58812 | 16201 ft | 340 kts | 216° |
| 2026-04-22 22:36 | 40.54308 | 28.57179 | 16942 ft | 340 kts | 216° |
| 2026-04-22 22:36 | 40.52315 | 28.55557 | 17667 ft | 341 kts | 217° |
| 2026-04-22 22:36 | 40.50298 | 28.53916 | 18460 ft | 341 kts | 217° |
| 2026-04-22 22:36 | 40.48281 | 28.52275 | 19127 ft | 342 kts | 217° |
| 2026-04-22 22:37 | 40.46245 | 28.50619 | 19780 ft | 345 kts | 217° |
| 2026-04-22 22:37 | 40.44197 | 28.48952 | 20422 ft | 348 kts | 217° |
| 2026-04-22 22:37 | 40.42133 | 28.47273 | 21055 ft | 351 kts | 217° |
| 2026-04-22 22:37 | 40.40051 | 28.45585 | 21666 ft | 353 kts | 217° |
| 2026-04-22 22:38 | 40.37943 | 28.43880 | 22259 ft | 356 kts | 217° |
| 2026-04-22 22:38 | 40.35822 | 28.42167 | 22800 ft | 360 kts | 217° |
| 2026-04-22 22:38 | 40.33680 | 28.40438 | 23339 ft | 364 kts | 217° |
| 2026-04-22 22:38 | 40.31514 | 28.38694 | 23850 ft | 367 kts | 217° |
| 2026-04-22 22:39 | 40.29328 | 28.36936 | 24325 ft | 369 kts | 218° |
| 2026-04-22 22:39 | 40.27132 | 28.35170 | 24779 ft | 372 kts | 218° |
| 2026-04-22 22:39 | 40.24917 | 28.33387 | 25211 ft | 375 kts | 219° |
| 2026-04-22 22:39 | 40.22688 | 28.31592 | 25657 ft | 377 kts | 219° |
| 2026-04-22 22:40 | 40.20441 | 28.29786 | 26052 ft | 380 kts | 220° |
| 2026-04-22 22:40 | 40.18185 | 28.27975 | 26481 ft | 382 kts | 220° |
| 2026-04-22 22:40 | 40.15908 | 28.26151 | 26913 ft | 384 kts | 220° |
| 2026-04-22 22:40 | 40.13624 | 28.24321 | 27353 ft | 386 kts | 220° |
| 2026-04-22 22:41 | 40.11328 | 28.22482 | 27773 ft | 388 kts | 220° |
| 2026-04-22 22:41 | 40.09015 | 28.20629 | 28201 ft | 391 kts | 221° |
| 2026-04-22 22:41 | 40.06695 | 28.18770 | 28616 ft | 393 kts | 221° |
| 2026-04-22 22:41 | 40.04360 | 28.16902 | 28976 ft | 395 kts | 221° |
| 2026-04-22 22:42 | 40.02012 | 28.15026 | 29387 ft | 397 kts | 221° |
| 2026-04-22 22:42 | 39.99650 | 28.13144 | 29799 ft | 399 kts | 221° |
| 2026-04-22 22:42 | 39.97278 | 28.11256 | 30163 ft | 401 kts | 222° |
| 2026-04-22 22:42 | 39.94890 | 28.09358 | 30476 ft | 403 kts | 222° |
| 2026-04-22 22:43 | 39.92491 | 28.07451 | 30773 ft | 405 kts | 222° |
| 2026-04-22 22:43 | 39.90078 | 28.05532 | 31102 ft | 406 kts | 222° |
| 2026-04-22 22:43 | 39.87674 | 28.03622 | 31490 ft | 404 kts | 222° |
| 2026-04-22 22:43 | 39.85269 | 28.01715 | 31875 ft | 405 kts | 222° |
| 2026-04-22 22:44 | 39.82865 | 27.99810 | 32256 ft | 405 kts | 222° |
| 2026-04-22 22:44 | 39.80489 | 27.97925 | 32683 ft | 405 kts | 222° |
| 2026-04-22 22:44 | 39.78087 | 27.96019 | 32976 ft | 405 kts | 222° |
| 2026-04-22 22:45 | 39.73324 | 27.92260 | 33026 ft | 395 kts | 223° |
| 2026-04-22 22:45 | 39.68624 | 27.88547 | 33031 ft | 396 kts | 223° |
| 2026-04-22 22:46 | 39.63911 | 27.84822 | 33030 ft | 397 kts | 223° |
| 2026-04-22 22:46 | 39.59184 | 27.81105 | 33029 ft | 397 kts | 223° |
| 2026-04-22 22:47 | 39.54455 | 27.77391 | 33005 ft | 397 kts | 223° |
| 2026-04-22 22:47 | 39.49751 | 27.73692 | 32992 ft | 399 kts | 223° |
| 2026-04-22 22:48 | 39.45003 | 27.69968 | 32994 ft | 400 kts | 222° |
| 2026-04-22 22:48 | 39.40237 | 27.66250 | 32994 ft | 400 kts | 222° |
| 2026-04-22 22:49 | 39.35471 | 27.62528 | 32992 ft | 400 kts | 223° |
| 2026-04-22 22:49 | 39.30694 | 27.58801 | 32995 ft | 401 kts | 222° |
| 2026-04-22 22:50 | 39.25912 | 27.55082 | 32987 ft | 401 kts | 222° |
| 2026-04-22 22:50 | 39.21136 | 27.51371 | 32947 ft | 401 kts | 222° |
| 2026-04-22 22:51 | 39.16355 | 27.47658 | 32959 ft | 402 kts | 222° |
| 2026-04-22 22:51 | 39.11565 | 27.43945 | 32987 ft | 402 kts | 222° |
| 2026-04-22 22:52 | 39.06764 | 27.40234 | 32987 ft | 402 kts | 222° |
| 2026-04-22 22:52 | 39.01853 | 27.36716 | 32944 ft | 414 kts | 212° |
| 2026-04-22 22:52 | 38.99075 | 27.35669 | 32944 ft | 431 kts | 201° |
| 2026-04-22 22:53 | 38.96026 | 27.35354 | 32952 ft | 449 kts | 188° |
| 2026-04-22 22:53 | 38.89710 | 27.36102 | 32941 ft | 456 kts | 185° |
| 2026-04-22 22:54 | 38.83389 | 27.36880 | 32779 ft | 458 kts | 185° |
| 2026-04-22 22:54 | 38.80210 | 27.37262 | 32510 ft | 459 kts | 185° |
| 2026-04-22 22:54 | 38.77031 | 27.37642 | 32245 ft | 459 kts | 184° |
| 2026-04-22 22:54 | 38.73849 | 27.38024 | 31981 ft | 460 kts | 184° |
| 2026-04-22 22:55 | 38.70661 | 27.38326 | 31348 ft | 456 kts | 188° |
| 2026-04-22 22:55 | 38.67500 | 27.38440 | 30152 ft | 453 kts | 189° |
| 2026-04-22 22:55 | 38.61420 | 27.38454 | 28850 ft | 420 kts | 191° |
| 2026-04-22 22:56 | 38.58511 | 27.38418 | 28303 ft | 417 kts | 191° |
| 2026-04-22 22:56 | 38.55615 | 27.38378 | 27749 ft | 416 kts | 190° |
| 2026-04-22 22:56 | 38.52721 | 27.38350 | 27190 ft | 414 kts | 190° |
| 2026-04-22 22:56 | 38.49847 | 27.38338 | 26634 ft | 412 kts | 189° |
| 2026-04-22 22:57 | 38.46989 | 27.38342 | 26089 ft | 410 kts | 189° |
| 2026-04-22 22:57 | 38.44139 | 27.38354 | 25563 ft | 409 kts | 189° |
| 2026-04-22 22:57 | 38.41298 | 27.38368 | 25005 ft | 408 kts | 188° |
| 2026-04-22 22:57 | 38.38471 | 27.38384 | 24530 ft | 406 kts | 188° |
| 2026-04-22 22:58 | 38.35650 | 27.38401 | 24027 ft | 405 kts | 188° |
| 2026-04-22 22:58 | 38.32830 | 27.38412 | 23543 ft | 405 kts | 188° |
| 2026-04-22 22:58 | 38.30057 | 27.38422 | 23010 ft | 402 kts | 187° |
| 2026-04-22 22:58 | 38.27274 | 27.38434 | 22541 ft | 398 kts | 187° |
| 2026-04-22 22:59 | 38.24515 | 27.38446 | 22062 ft | 395 kts | 187° |
| 2026-04-22 22:59 | 38.21774 | 27.38455 | 21568 ft | 393 kts | 187° |
| 2026-04-22 22:59 | 38.19052 | 27.38461 | 21090 ft | 390 kts | 187° |
| 2026-04-22 22:59 | 38.16345 | 27.38469 | 20589 ft | 388 kts | 187° |
| 2026-04-22 23:00 | 38.13654 | 27.38479 | 20089 ft | 385 kts | 187° |
| 2026-04-22 23:00 | 38.10981 | 27.38488 | 19569 ft | 383 kts | 187° |
| 2026-04-22 23:00 | 38.08314 | 27.38498 | 19047 ft | 381 kts | 186° |
| 2026-04-22 23:00 | 38.05655 | 27.38507 | 18513 ft | 381 kts | 186° |
| 2026-04-22 23:01 | 38.03015 | 27.38515 | 17944 ft | 379 kts | 186° |
| 2026-04-22 23:01 | 38.00384 | 27.38521 | 17393 ft | 375 kts | 186° |
| 2026-04-22 23:01 | 37.98679 | 27.38529 | 17030 ft | 363 kts | 186° |
| 2026-04-22 23:01 | 37.95415 | 27.38554 | 16402 ft | 342 kts | 186° |
| 2026-04-22 23:02 | 37.93841 | 27.38563 | 16062 ft | 341 kts | 186° |
| 2026-04-22 23:02 | 37.90697 | 27.38568 | 15409 ft | 341 kts | 186° |
| 2026-04-22 23:02 | 37.88326 | 27.38568 | 14923 ft | 340 kts | 186° |
| 2026-04-22 23:02 | 37.86731 | 27.38569 | 14592 ft | 339 kts | 186° |
| 2026-04-22 23:03 | 37.83604 | 27.38575 | 13938 ft | 338 kts | 186° |
| 2026-04-22 23:03 | 37.82043 | 27.38580 | 13603 ft | 338 kts | 185° |
| 2026-04-22 23:03 | 37.79690 | 27.38586 | 13072 ft | 336 kts | 185° |
| 2026-04-22 23:03 | 37.77363 | 27.38588 | 12588 ft | 333 kts | 185° |
| 2026-04-22 23:04 | 37.75060 | 27.38594 | 12108 ft | 330 kts | 185° |
| 2026-04-22 23:04 | 37.72770 | 27.38603 | 11632 ft | 328 kts | 185° |
| 2026-04-22 23:04 | 37.70494 | 27.38611 | 11172 ft | 326 kts | 185° |
| 2026-04-22 23:04 | 37.68275 | 27.38622 | 11021 ft | 308 kts | 185° |
| 2026-04-22 23:05 | 37.66188 | 27.38638 | 10626 ft | 294 kts | 185° |
| 2026-04-22 23:05 | 37.64163 | 27.38649 | 10340 ft | 289 kts | 186° |
| 2026-04-22 23:05 | 37.62199 | 27.38374 | 10115 ft | 281 kts | 199° |
| 2026-04-22 23:05 | 37.60336 | 27.37689 | 9882 ft | 278 kts | 201° |
| 2026-04-22 23:06 | 37.58474 | 27.36992 | 9536 ft | 281 kts | 201° |
| 2026-04-22 23:06 | 37.56608 | 27.36297 | 9215 ft | 277 kts | 201° |
| 2026-04-22 23:06 | 37.54760 | 27.35613 | 8668 ft | 275 kts | 201° |
| 2026-04-22 23:06 | 37.52942 | 27.34943 | 8130 ft | 270 kts | 200° |
| 2026-04-22 23:07 | 37.51150 | 27.34280 | 7640 ft | 267 kts | 200° |
| 2026-04-22 23:07 | 37.49373 | 27.33623 | 7168 ft | 266 kts | 200° |
| 2026-04-22 23:07 | 37.47600 | 27.32965 | 6696 ft | 271 kts | 200° |
| 2026-04-22 23:07 | 37.45781 | 27.32291 | 6413 ft | 267 kts | 200° |
| 2026-04-22 23:08 | 37.44035 | 27.31646 | 5904 ft | 264 kts | 199° |
| 2026-04-22 23:08 | 37.42267 | 27.30993 | 5495 ft | 255 kts | 198° |
| 2026-04-22 23:08 | 37.40639 | 27.30396 | 5405 ft | 240 kts | 198° |
| 2026-04-22 23:08 | 37.39088 | 27.29825 | 5304 ft | 225 kts | 198° |
| 2026-04-22 23:09 | 37.37614 | 27.29392 | 5199 ft | 212 kts | 187° |
| 2026-04-22 23:09 | 37.36156 | 27.29527 | 5110 ft | 211 kts | 168° |
| 2026-04-22 23:09 | 37.34798 | 27.30255 | 5004 ft | 215 kts | 150° |
| 2026-04-22 23:09 | 37.33679 | 27.31531 | 4692 ft | 221 kts | 129° |
| 2026-04-22 23:10 | 37.32986 | 27.33248 | 4433 ft | 222 kts | 110° |
| 2026-04-22 23:10 | 37.32550 | 27.35096 | 4197 ft | 218 kts | 109° |
| 2026-04-22 23:10 | 37.32127 | 27.36910 | 3978 ft | 214 kts | 109° |
| 2026-04-22 23:10 | 37.31721 | 27.38644 | 3906 ft | 201 kts | 110° |
| 2026-04-22 23:11 | 37.31327 | 27.40311 | 3811 ft | 198 kts | 110° |
| 2026-04-22 23:11 | 37.30938 | 27.41960 | 3720 ft | 196 kts | 110° |
| 2026-04-22 23:11 | 37.30552 | 27.43596 | 3640 ft | 193 kts | 110° |
| 2026-04-22 23:11 | 37.30172 | 27.45202 | 3489 ft | 190 kts | 110° |
| 2026-04-22 23:12 | 37.29798 | 27.46785 | 3245 ft | 188 kts | 110° |
| 2026-04-22 23:12 | 37.29429 | 27.48347 | 2971 ft | 185 kts | 109° |
| 2026-04-22 23:12 | 37.29065 | 27.49883 | 2721 ft | 182 kts | 109° |
| 2026-04-22 23:12 | 37.28713 | 27.51373 | 2450 ft | 172 kts | 109° |
| 2026-04-22 23:13 | 37.28382 | 27.52768 | 2209 ft | 161 kts | 108° |
| 2026-04-22 23:13 | 37.28072 | 27.54078 | 1980 ft | 152 kts | 108° |
| 2026-04-22 23:13 | 37.27777 | 27.55322 | 1754 ft | 146 kts | 108° |
| 2026-04-22 23:13 | 37.27493 | 27.56514 | 1544 ft | 143 kts | 108° |
| 2026-04-22 23:14 | 37.27211 | 27.57703 | 1340 ft | 141 kts | 107° |
| 2026-04-22 23:14 | 37.26931 | 27.58881 | 1122 ft | 140 kts | 107° |
| 2026-04-22 23:14 | 37.26654 | 27.60043 | 920 ft | 138 kts | 107° |
| 2026-04-22 23:14 | 37.26374 | 27.61192 | 703 ft | 138 kts | 107° |
| 2026-04-22 23:15 | 37.26103 | 27.62340 | 492 ft | 136 kts | 106° |
| 2026-04-22 23:15 | 37.25841 | 27.63486 | 278 ft | 137 kts | 107° |
| 2026-04-22 23:15 | 37.25566 | 27.64626 | 106 ft | 137 kts | 106° |
| 2026-04-22 23:15 | 37.25304 | 27.65724 | 30 ft | 117 kts | 107° |
| 2026-04-22 23:16 | 37.25121 | 27.66496 | 30 ft | 68 kts | 107° |
| 2026-04-22 23:16 | 37.25023 | 27.66897 | 29 ft | 38 kts | 107° |
| 2026-04-22 23:16 | 37.24948 | 27.67214 | 32 ft | 33 kts | 107° |
| 2026-04-22 23:16 | 37.24880 | 27.67396 | 33 ft | 15 kts | 125° |
| 2026-04-22 23:17 | 37.24810 | 27.67507 | 32 ft | 17 kts | 137° |
| 2026-04-22 23:17 | 37.24717 | 27.67614 | 33 ft | 16 kts | 136° |
| 2026-04-22 23:17 | 37.24643 | 27.67668 | 33 ft | 13 kts | 187° |
| 2026-04-22 23:17 | 37.24573 | 27.67643 | 31 ft | 0 kts | 197° |
| 2026-04-22 23:18 | 37.24572 | 27.67642 | 31 ft | 1 kts | 197° |
| 2026-04-22 23:18 | 37.24549 | 27.67633 | 31 ft | 6 kts | 197° |
| 2026-04-22 23:18 | 37.24513 | 27.67600 | 30 ft | 7 kts | 255° |
| 2026-04-22 23:19 | 37.24527 | 27.67541 | 31 ft | 8 kts | 286° |
| 2026-04-22 23:19 | 37.24543 | 27.67474 | 31 ft | 7 kts | 287° |
| 2026-04-22 23:19 | 37.24559 | 27.67406 | 31 ft | 9 kts | 287° |
| 2026-04-22 23:19 | 37.24576 | 27.67334 | 31 ft | 7 kts | 276° |
| 2026-04-22 23:20 | 37.24542 | 27.67302 | 31 ft | 6 kts | 196° |
| 2026-04-22 23:20 | 37.24519 | 27.67294 | 31 ft | 0 kts | 196° |